Time;durP1;ratioP1;P1;durP2;ratioP2;P2;SDS_P1;SDS_P2;PMS_P1;PMS_P2;Temp;Humidity;BMP_temperature;BMP_pressure;BME280_temperature;BME280_humidity;BME280_pressure;Samples;Min_cycle;Max_cycle;Signal;HPM_P1;HPM_P2
2021/10/30 00:01:30;;;;;;;7.67;4.80;;;15.30;99.90;;;;;;5051532;28;20176;-79
2021/10/30 00:03:56;;;;;;;7.03;5.43;;;15.30;99.90;;;;;;5051367;28;20925;-79
2021/10/30 00:06:22;;;;;;;6.90;5.70;;;15.30;99.90;;;;;;5051655;28;20169;-79
2021/10/30 00:08:48;;;;;;;7.60;6.53;;;15.30;99.90;;;;;;5051720;28;20165;-79
2021/10/30 00:11:14;;;;;;;8.27;5.70;;;15.20;99.90;;;;;;5051486;28;20580;-79
2021/10/30 00:13:39;;;;;;;7.40;6.13;;;15.20;99.90;;;;;;5051294;28;20262;-79
2021/10/30 00:16:05;;;;;;;7.60;6.23;;;15.20;99.90;;;;;;5055076;28;20615;-79
2021/10/30 00:18:31;;;;;;;7.17;6.17;;;15.20;99.90;;;;;;5054105;28;20275;-79
2021/10/30 00:20:58;;;;;;;6.67;5.80;;;15.20;99.90;;;;;;5037593;28;20326;-79
2021/10/30 00:23:23;;;;;;;7.33;5.70;;;15.10;99.90;;;;;;5056972;28;20234;-79
2021/10/30 00:25:49;;;;;;;8.23;5.40;;;15.10;99.90;;;;;;5038267;28;20583;-79
2021/10/30 00:28:15;;;;;;;6.20;5.60;;;15.10;99.90;;;;;;5054982;28;20208;-79
2021/10/30 00:30:41;;;;;;;5.53;4.87;;;15.10;99.90;;;;;;5055403;28;20391;-78
2021/10/30 00:33:06;;;;;;;6.50;5.50;;;15.10;99.90;;;;;;5054818;28;20599;-79
2021/10/30 00:35:32;;;;;;;7.63;5.80;;;15.10;99.90;;;;;;5054935;28;20558;-79
2021/10/30 00:37:59;;;;;;;5.47;4.93;;;15.10;99.90;;;;;;5037021;28;20169;-78
2021/10/30 00:40:24;;;;;;;7.60;5.40;;;15.10;99.90;;;;;;5053874;28;20572;-79
2021/10/30 00:42:51;;;;;;;6.47;5.23;;;15.00;99.90;;;;;;5054668;28;20660;-79
2021/10/30 00:45:17;;;;;;;6.00;5.30;;;15.00;99.90;;;;;;5054740;28;20578;-79
2021/10/30 00:47:43;;;;;;;4.87;3.83;;;15.00;99.90;;;;;;5055112;28;20563;-79
2021/10/30 00:50:09;;;;;;;7.33;5.43;;;15.00;99.90;;;;;;5054798;28;20168;-79
2021/10/30 00:52:37;;;;;;;5.27;4.40;;;15.00;99.90;;;;;;5054893;28;20615;-76
2021/10/30 00:55:03;;;;;;;7.63;5.30;;;15.00;99.90;;;;;;5054211;28;20927;-76
2021/10/30 00:57:29;;;;;;;6.83;6.03;;;15.00;99.90;;;;;;5054569;28;20658;-77
2021/10/30 00:59:55;;;;;;;5.63;4.20;;;14.90;99.90;;;;;;5054535;28;20674;-77
2021/10/30 01:02:22;;;;;;;5.00;4.33;;;14.90;99.90;;;;;;5068178;28;20266;-77
2021/10/30 01:04:48;;;;;;;6.33;5.20;;;14.90;99.90;;;;;;5065495;28;20590;-77
2021/10/30 01:07:14;;;;;;;6.40;5.37;;;14.90;99.90;;;;;;5066779;28;20575;-77
2021/10/30 01:09:40;;;;;;;5.13;4.23;;;14.90;99.90;;;;;;5072969;28;20946;-77
2021/10/30 01:12:08;;;;;;;5.60;4.10;;;14.90;99.90;;;;;;5055764;28;20691;-77
2021/10/30 01:14:35;;;;;;;5.60;4.67;;;14.90;99.90;;;;;;5063652;28;20575;-76
2021/10/30 01:17:03;;;;;;;6.60;5.30;;;14.90;99.90;;;;;;5065105;28;20902;-76
2021/10/30 01:19:30;;;;;;;5.67;4.80;;;14.90;99.90;;;;;;5073675;28;20678;-77
2021/10/30 01:21:56;;;;;;;5.83;5.03;;;14.90;99.90;;;;;;5067871;28;20667;-76
2021/10/30 01:24:22;;;;;;;4.40;3.60;;;14.90;99.90;;;;;;5064884;28;20929;-76
2021/10/30 01:26:49;;;;;;;5.43;4.77;;;14.90;99.90;;;;;;5072550;28;20559;-76
2021/10/30 01:29:15;;;;;;;6.47;4.03;;;14.90;99.90;;;;;;5074063;28;21061;-76
2021/10/30 01:31:40;;;;;;;4.90;4.20;;;14.90;99.90;;;;;;5073922;28;20586;-76
2021/10/30 01:34:08;;;;;;;4.40;3.10;;;14.90;99.90;;;;;;5074044;28;20578;-76
2021/10/30 01:36:35;;;;;;;6.37;4.13;;;14.90;99.90;;;;;;5073589;28;20676;-77
2021/10/30 01:39:04;;;;;;;4.37;3.90;;;14.90;99.90;;;;;;5077811;28;20962;-76
2021/10/30 01:41:31;;;;;;;4.97;3.90;;;14.90;99.90;;;;;;5054269;28;20587;-76
2021/10/30 01:43:57;;;;;;;4.93;4.43;;;14.90;99.90;;;;;;5069984;28;20570;-77
2021/10/30 01:46:23;;;;;;;4.33;3.03;;;14.90;99.90;;;;;;5064524;28;20597;-77
2021/10/30 01:48:49;;;;;;;3.90;3.50;;;14.90;99.90;;;;;;5073750;28;20578;-77
2021/10/30 01:51:16;;;;;;;5.47;3.90;;;14.90;99.90;;;;;;5073329;28;20673;-77
2021/10/30 01:53:42;;;;;;;5.53;3.97;;;14.90;99.90;;;;;;5073490;28;20597;-76
2021/10/30 01:56:09;;;;;;;4.70;3.50;;;14.90;99.90;;;;;;5073106;28;20610;-77
2021/10/30 01:58:35;;;;;;;6.30;3.90;;;14.90;99.90;;;;;;5073628;28;20602;-77
2021/10/30 02:01:03;;;;;;;3.30;3.00;;;14.90;99.90;;;;;;5073424;28;20678;-77
2021/10/30 02:03:33;;;;;;;4.07;3.53;;;14.90;99.90;;;;;;5073472;28;21133;-77
2021/10/30 02:05:59;;;;;;;5.20;3.60;;;14.90;99.90;;;;;;5073478;28;21100;-77
2021/10/30 02:08:25;;;;;;;6.10;3.67;;;14.90;99.90;;;;;;5075097;28;21077;-77
2021/10/30 02:10:52;;;;;;;5.33;4.43;;;14.90;99.90;;;;;;5073589;28;21086;-77
2021/10/30 02:13:19;;;;;;;5.77;3.83;;;14.90;99.90;;;;;;5073466;28;20656;-77
2021/10/30 02:15:47;;;;;;;4.73;4.00;;;14.80;99.90;;;;;;5076557;28;20618;-77
2021/10/30 02:18:13;;;;;;;5.17;4.17;;;14.80;99.90;;;;;;5073208;28;21148;-77
2021/10/30 02:20:39;;;;;;;5.17;4.30;;;14.70;99.90;;;;;;5073163;28;20267;-76
2021/10/30 02:23:05;;;;;;;5.70;4.77;;;14.70;99.90;;;;;;5072908;28;20686;-76
2021/10/30 02:25:30;;;;;;;4.60;3.63;;;14.70;99.90;;;;;;5072610;28;20168;-76
2021/10/30 02:27:56;;;;;;;6.20;4.40;;;14.70;99.90;;;;;;5071393;28;20643;-76
2021/10/30 02:30:23;;;;;;;4.43;4.03;;;14.70;99.90;;;;;;5072847;28;20180;-76
2021/10/30 02:32:49;;;;;;;4.60;3.87;;;14.70;99.90;;;;;;5071413;28;20242;-77
2021/10/30 02:35:15;;;;;;;6.97;4.63;;;14.70;99.90;;;;;;5054545;28;20569;-76
2021/10/30 02:37:41;;;;;;;3.90;3.53;;;14.70;99.90;;;;;;5071807;28;20608;-76
2021/10/30 02:40:09;;;;;;;5.50;4.80;;;14.70;99.90;;;;;;5054743;28;20571;-77
2021/10/30 02:42:36;;;;;;;4.23;3.13;;;14.70;99.90;;;;;;5054366;28;20747;-77
2021/10/30 02:45:04;;;;;;;6.70;4.33;;;14.60;99.90;;;;;;5072389;28;20930;-77
2021/10/30 02:47:30;;;;;;;5.53;4.17;;;14.70;99.90;;;;;;5072292;28;20570;-77
2021/10/30 02:49:56;;;;;;;6.43;3.93;;;14.70;99.90;;;;;;5072493;28;20563;-77
2021/10/30 02:52:22;;;;;;;4.00;2.97;;;14.60;99.90;;;;;;5076293;28;20648;-77
2021/10/30 02:54:49;;;;;;;4.70;4.20;;;14.70;99.90;;;;;;5072535;28;20156;-77
2021/10/30 02:57:16;;;;;;;5.07;4.30;;;14.60;99.90;;;;;;5071998;28;20661;-77
2021/10/30 02:59:41;;;;;;;7.43;4.47;;;14.50;99.90;;;;;;5072525;28;20991;-77
2021/10/30 03:02:07;;;;;;;6.00;4.50;;;14.50;99.90;;;;;;5072043;28;20191;-77
2021/10/30 03:04:33;;;;;;;5.87;4.07;;;14.50;99.90;;;;;;5072150;28;20172;-77
2021/10/30 03:06:58;;;;;;;4.90;4.30;;;14.50;99.90;;;;;;5071929;28;20168;-77
2021/10/30 03:09:24;;;;;;;5.83;4.00;;;14.50;99.90;;;;;;5071811;28;20176;-77
2021/10/30 03:11:50;;;;;;;6.37;3.83;;;14.50;99.90;;;;;;5072064;28;20192;-77
2021/10/30 03:14:16;;;;;;;5.80;4.37;;;14.50;99.90;;;;;;5071881;28;20169;-77
2021/10/30 03:16:42;;;;;;;5.27;3.83;;;14.60;99.90;;;;;;5071692;28;20200;-77
2021/10/30 03:19:08;;;;;;;4.87;4.17;;;14.50;99.90;;;;;;5070571;28;20935;-77
2021/10/30 03:21:34;;;;;;;4.63;4.20;;;14.50;99.90;;;;;;5071865;28;20571;-77
2021/10/30 03:23:59;;;;;;;5.10;3.70;;;14.50;99.90;;;;;;5070552;28;20175;-77
2021/10/30 03:26:25;;;;;;;4.07;3.30;;;14.50;99.90;;;;;;5053741;28;20569;-77
2021/10/30 03:28:52;;;;;;;4.23;3.83;;;14.60;99.90;;;;;;5055229;28;20230;-77
2021/10/30 03:31:17;;;;;;;5.00;4.00;;;14.60;99.90;;;;;;5074857;28;20180;-77
2021/10/30 03:33:43;;;;;;;5.30;4.20;;;14.60;99.90;;;;;;5071628;28;20681;-77
2021/10/30 03:36:09;;;;;;;4.87;4.00;;;14.60;99.90;;;;;;5053694;28;20565;-77
2021/10/30 03:38:35;;;;;;;5.37;3.83;;;14.60;99.90;;;;;;5071502;28;20164;-77
2021/10/30 03:41:01;;;;;;;5.00;3.50;;;14.60;99.90;;;;;;5071865;28;20541;-77
2021/10/30 03:43:28;;;;;;;5.20;3.97;;;14.60;99.90;;;;;;5071604;28;20619;-77
2021/10/30 03:45:54;;;;;;;4.10;3.30;;;14.50;99.90;;;;;;5071434;28;20920;-77
2021/10/30 03:48:20;;;;;;;5.30;4.90;;;14.60;99.90;;;;;;5053871;28;20578;-77
2021/10/30 03:50:47;;;;;;;3.10;2.70;;;14.50;99.90;;;;;;5071683;28;20563;-77
2021/10/30 03:53:13;;;;;;;4.83;3.10;;;14.50;99.90;;;;;;5053278;28;20633;-77
2021/10/30 03:55:40;;;;;;;4.57;3.17;;;14.60;99.90;;;;;;5053098;28;20626;-77
2021/10/30 03:58:07;;;;;;;4.13;3.63;;;14.50;99.90;;;;;;5071640;28;20962;-77
2021/10/30 04:00:33;;;;;;;5.13;3.87;;;14.50;99.90;;;;;;5053683;28;20172;-77
2021/10/30 04:02:59;;;;;;;4.00;3.17;;;14.50;99.90;;;;;;5071360;28;20210;-77
2021/10/30 04:05:25;;;;;;;3.80;3.40;;;14.40;99.90;;;;;;5071388;28;20562;-77
2021/10/30 04:07:51;;;;;;;4.33;3.60;;;14.40;99.90;;;;;;5077402;28;20577;-77
2021/10/30 04:10:16;;;;;;;5.70;4.63;;;14.40;99.90;;;;;;5071946;28;20530;-77
2021/10/30 04:12:42;;;;;;;4.20;3.07;;;14.40;99.90;;;;;;5075760;28;20241;-76
2021/10/30 04:15:08;;;;;;;5.20;3.73;;;14.40;99.90;;;;;;5053043;28;20688;-76
2021/10/30 04:17:34;;;;;;;4.17;3.63;;;14.40;99.90;;;;;;5053734;28;20207;-76
2021/10/30 04:20:00;;;;;;;3.73;3.33;;;14.40;99.90;;;;;;5053159;28;20614;-76
2021/10/30 04:22:25;;;;;;;3.97;3.33;;;14.40;99.90;;;;;;5071306;28;20196;-76
2021/10/30 04:24:51;;;;;;;4.10;3.57;;;14.40;99.90;;;;;;5071053;28;20607;-76
2021/10/30 04:27:17;;;;;;;5.70;2.60;;;14.50;99.90;;;;;;5070783;28;20164;-76
2021/10/30 04:29:42;;;;;;;7.00;3.23;;;14.50;99.90;;;;;;5053288;28;20230;-76
2021/10/30 04:32:10;;;;;;;4.83;4.00;;;14.50;99.90;;;;;;5071018;28;20245;-76
2021/10/30 04:37:15;;;;;;;6.97;3.10;;;14.60;99.90;;;;;;5070509;28;20610;-77
2021/10/30 04:39:42;;;;;;;5.30;4.07;;;14.60;99.90;;;;;;5071292;28;20559;-77
2021/10/30 04:42:08;;;;;;;4.53;4.10;;;14.60;99.90;;;;;;5069643;28;20642;-77
2021/10/30 04:44:33;;;;;;;6.67;4.50;;;14.60;99.90;;;;;;5075580;28;20892;-76
2021/10/30 04:46:59;;;;;;;4.27;3.20;;;14.60;99.90;;;;;;5070685;28;20641;-76
2021/10/30 04:49:25;;;;;;;4.47;3.43;;;14.60;99.90;;;;;;5071193;28;20725;-76
2021/10/30 04:51:50;;;;;;;5.37;3.93;;;14.70;99.90;;;;;;5052760;28;20241;-76
2021/10/30 04:54:16;;;;;;;7.30;3.80;;;14.60;99.90;;;;;;5052914;28;20188;-76
2021/10/30 04:56:42;;;;;;;3.57;3.27;;;14.60;99.90;;;;;;5052484;28;20242;-76
2021/10/30 04:59:07;;;;;;;3.70;3.30;;;14.60;99.90;;;;;;5071405;28;20514;-76
2021/10/30 05:01:33;;;;;;;5.20;3.33;;;14.60;99.90;;;;;;5056619;28;20164;-78
2021/10/30 05:03:59;;;;;;;4.13;3.43;;;14.70;99.90;;;;;;5056786;28;20195;-77
2021/10/30 05:06:24;;;;;;;4.47;3.83;;;14.70;99.90;;;;;;5055981;28;20172;-77
2021/10/30 05:08:50;;;;;;;5.03;3.60;;;14.70;99.90;;;;;;5039843;28;20179;-77
2021/10/30 05:11:16;;;;;;;3.50;3.00;;;14.80;99.90;;;;;;5074337;28;20582;-77
2021/10/30 05:13:41;;;;;;;4.37;3.13;;;14.80;99.90;;;;;;5074287;28;20195;-77
2021/10/30 05:16:07;;;;;;;5.43;4.10;;;14.80;99.90;;;;;;5056175;28;20565;-77
2021/10/30 05:18:33;;;;;;;4.80;3.70;;;14.80;99.90;;;;;;5074245;28;20172;-77
2021/10/30 05:20:58;;;;;;;7.70;3.60;;;14.90;99.90;;;;;;5078727;28;20198;-77
2021/10/30 05:23:24;;;;;;;4.90;2.90;;;14.80;99.90;;;;;;5073875;28;20184;-76
2021/10/30 05:25:50;;;;;;;4.70;3.07;;;14.90;99.90;;;;;;5055969;28;20169;-76
2021/10/30 05:28:21;;;;;;;5.30;4.00;;;14.90;99.90;;;;;;5074007;28;20180;-77
2021/10/30 05:30:48;;;;;;;4.13;3.63;;;14.90;99.90;;;;;;5056394;28;20176;-76
2021/10/30 05:33:14;;;;;;;3.87;3.53;;;14.90;99.90;;;;;;5073671;28;20598;-76
2021/10/30 05:36:10;;;;;;;4.50;3.00;;;15.00;99.90;;;;;;5073649;28;20680;-77
2021/10/30 05:38:49;;;;;;;4.20;3.30;;;15.00;99.90;;;;;;5039324;28;20566;-76
2021/10/30 05:41:17;;;;;;;4.60;3.10;;;15.00;99.90;;;;;;5074008;28;21121;-76
2021/10/30 05:43:43;;;;;;;3.37;2.67;;;15.00;99.90;;;;;;5073716;28;21181;-77
2021/10/30 05:46:08;;;;;;;3.53;3.17;;;15.00;99.90;;;;;;5055792;28;20602;-78
2021/10/30 05:48:35;;;;;;;4.60;2.70;;;15.00;99.90;;;;;;5073675;28;20180;-77
2021/10/30 05:51:02;;;;;;;3.97;2.57;;;15.00;99.90;;;;;;5073692;28;20169;-76
2021/10/30 05:53:28;;;;;;;5.87;2.93;;;15.00;99.90;;;;;;5073321;28;21128;-76
2021/10/30 05:55:54;;;;;;;3.20;2.80;;;15.00;99.90;;;;;;5073322;28;20614;-77
2021/10/30 05:58:20;;;;;;;5.63;3.77;;;15.00;99.90;;;;;;5077730;28;20592;-77
2021/10/30 06:00:45;;;;;;;4.43;2.97;;;15.00;99.90;;;;;;5073652;28;20164;-76
2021/10/30 06:03:11;;;;;;;5.33;3.40;;;15.10;99.90;;;;;;5073198;28;20188;-77
2021/10/30 06:05:37;;;;;;;5.17;3.67;;;15.10;99.90;;;;;;5073087;28;20255;-77
2021/10/30 06:08:03;;;;;;;3.87;2.80;;;15.10;99.90;;;;;;5073268;28;20176;-77
2021/10/30 06:10:30;;;;;;;6.70;3.27;;;15.10;99.90;;;;;;5072760;28;20976;-77
2021/10/30 06:12:56;;;;;;;4.83;2.50;;;15.20;99.90;;;;;;5072747;28;21143;-77
2021/10/30 06:15:22;;;;;;;2.73;2.37;;;15.20;99.90;;;;;;5054936;28;20578;-77
2021/10/30 06:17:48;;;;;;;4.37;3.27;;;15.20;99.90;;;;;;5055657;28;20172;-76
2021/10/30 06:20:14;;;;;;;3.80;3.40;;;15.20;99.90;;;;;;5073032;28;20172;-76
2021/10/30 06:22:42;;;;;;;3.37;3.07;;;15.20;99.90;;;;;;5072613;28;20193;-77
2021/10/30 06:25:12;;;;;;;3.10;2.73;;;15.20;99.90;;;;;;5057928;28;20582;-76
2021/10/30 06:27:39;;;;;;;4.23;3.80;;;15.20;99.90;;;;;;5053193;28;20555;-76
2021/10/30 06:30:11;;;;;;;5.10;3.97;;;15.10;99.90;;;;;;5034937;28;20568;-77
2021/10/30 06:32:36;;;;;;;3.90;3.40;;;15.10;99.90;;;;;;5052775;28;20591;-78
2021/10/30 06:35:03;;;;;;;8.43;3.47;;;15.00;99.90;;;;;;5056075;28;20621;-78
2021/10/30 06:37:28;;;;;;;3.80;2.70;;;15.00;99.90;;;;;;5053001;28;20208;-78
2021/10/30 06:39:54;;;;;;;4.20;3.20;;;15.00;99.90;;;;;;5052629;28;20559;-77
2021/10/30 06:42:20;;;;;;;4.30;3.33;;;15.10;99.90;;;;;;5052688;28;20242;-77
2021/10/30 06:44:46;;;;;;;6.57;2.80;;;15.10;99.90;;;;;;5034673;28;20173;-77
2021/10/30 06:47:12;;;;;;;3.43;3.00;;;15.10;99.90;;;;;;5052254;28;20204;-76
2021/10/30 06:49:38;;;;;;;5.20;3.50;;;15.10;99.90;;;;;;5052769;28;20187;-77
2021/10/30 06:52:06;;;;;;;3.20;2.73;;;15.10;99.90;;;;;;5052599;28;20619;-77
2021/10/30 06:54:32;;;;;;;5.33;2.60;;;15.00;99.90;;;;;;5093838;23;20734;-76
2021/10/30 06:56:58;;;;;;;4.10;3.70;;;15.10;99.90;;;;;;5062416;28;20730;-76
2021/10/30 06:59:23;;;;;;;3.57;3.27;;;15.00;99.90;;;;;;5073601;28;20238;-75
2021/10/30 07:01:49;;;;;;;4.73;3.70;;;15.10;99.90;;;;;;5084445;28;20203;-76
2021/10/30 07:04:15;;;;;;;3.90;3.50;;;15.00;99.90;;;;;;5092317;28;20233;-77
2021/10/30 07:06:40;;;;;;;4.67;4.20;;;15.10;99.90;;;;;;5091067;28;20523;-76
2021/10/30 07:09:06;;;;;;;4.00;3.30;;;15.10;99.90;;;;;;5065880;28;20690;-76
2021/10/30 07:11:32;;;;;;;2.97;2.73;;;15.10;99.90;;;;;;5069021;28;20183;-75
2021/10/30 07:13:57;;;;;;;4.07;3.60;;;15.10;99.90;;;;;;5046491;28;20195;-76
2021/10/30 07:16:26;;;;;;;6.40;4.63;;;15.10;99.90;;;;;;5077497;28;20192;-76
2021/10/30 07:18:52;;;;;;;5.63;3.70;;;15.10;99.90;;;;;;5056141;28;20561;-76
2021/10/30 07:21:17;;;;;;;4.70;3.73;;;15.10;99.90;;;;;;5062579;28;20582;-76
2021/10/30 07:23:43;;;;;;;3.87;3.50;;;15.00;99.90;;;;;;5073558;28;20184;-76
2021/10/30 07:26:09;;;;;;;4.67;3.73;;;15.00;99.90;;;;;;5083792;28;20175;-76
2021/10/30 07:28:35;;;;;;;5.50;4.67;;;15.00;99.90;;;;;;5079918;28;20528;-76
2021/10/30 07:31:01;;;;;;;4.30;3.77;;;14.90;99.90;;;;;;5071510;28;20681;-76
2021/10/30 07:33:27;;;;;;;5.03;3.80;;;15.00;99.90;;;;;;5079873;28;20204;-77
2021/10/30 07:35:53;;;;;;;8.87;4.07;;;15.00;99.90;;;;;;5082889;28;20643;-77
2021/10/30 07:38:22;;;;;;;4.43;4.03;;;15.00;99.90;;;;;;5074417;28;20689;-77
2021/10/30 07:40:48;;;;;;;6.90;4.23;;;15.00;99.90;;;;;;5092180;28;20251;-78
2021/10/30 07:43:14;;;;;;;4.30;3.90;;;15.00;99.90;;;;;;5056885;28;20929;-77
2021/10/30 07:45:40;;;;;;;7.23;4.73;;;14.90;99.90;;;;;;5079130;28;20582;-76
2021/10/30 07:48:05;;;;;;;5.83;5.33;;;14.90;99.90;;;;;;5102308;28;20176;-76
2021/10/30 07:50:31;;;;;;;5.00;4.17;;;14.90;99.90;;;;;;5084487;28;20184;-76
2021/10/30 07:52:58;;;;;;;5.83;4.83;;;14.90;99.90;;;;;;5082024;28;20164;-75
2021/10/30 07:55:24;;;;;;;8.00;5.23;;;14.90;99.90;;;;;;5083155;28;20264;-76
2021/10/30 07:57:50;;;;;;;5.17;4.00;;;14.80;99.90;;;;;;5100682;28;20957;-76
2021/10/30 08:00:15;;;;;;;5.63;4.97;;;14.90;99.90;;;;;;5062080;28;20569;-76
2021/10/30 08:02:43;;;;;;;6.17;4.70;;;14.90;99.90;;;;;;5097026;28;20191;-76
2021/10/30 08:05:13;;;;;;;5.90;4.07;;;14.90;99.90;;;;;;5091581;28;20187;-76
2021/10/30 08:07:45;;;;;;;3.93;3.43;;;14.80;99.90;;;;;;5091449;28;20594;-76
2021/10/30 08:10:12;;;;;;;4.67;4.00;;;14.90;99.90;;;;;;5091736;28;20566;-77
2021/10/30 08:12:40;;;;;;;4.50;4.10;;;14.90;99.90;;;;;;5057410;28;21252;-77
2021/10/30 08:15:07;;;;;;;3.60;3.00;;;15.00;99.90;;;;;;5091215;28;20686;-77
2021/10/30 08:17:33;;;;;;;7.03;4.07;;;15.00;99.90;;;;;;5073189;28;20195;-77
2021/10/30 08:20:03;;;;;;;4.73;3.90;;;15.00;99.90;;;;;;5091755;28;20566;-77
2021/10/30 08:22:29;;;;;;;4.87;2.90;;;14.90;99.90;;;;;;5091357;28;20542;-77
2021/10/30 08:24:55;;;;;;;4.67;4.27;;;14.90;99.90;;;;;;5073358;28;20590;-77
2021/10/30 08:27:20;;;;;;;4.40;4.00;;;14.90;99.90;;;;;;5091206;28;20570;-77
2021/10/30 08:29:46;;;;;;;5.30;4.20;;;15.00;99.90;;;;;;5056938;28;20639;-77
2021/10/30 08:32:13;;;;;;;4.70;3.80;;;14.90;99.90;;;;;;5073612;28;20218;-77
2021/10/30 08:34:39;;;;;;;3.73;2.93;;;14.90;99.90;;;;;;5077209;28;20755;-77
2021/10/30 08:37:05;;;;;;;4.80;3.80;;;14.90;99.90;;;;;;5076465;28;20701;-77
2021/10/30 08:39:31;;;;;;;4.83;3.50;;;14.90;99.90;;;;;;5060424;28;20180;-76
2021/10/30 08:41:57;;;;;;;5.13;3.73;;;14.90;99.90;;;;;;5072125;28;20582;-77
2021/10/30 08:44:23;;;;;;;5.97;3.17;;;14.90;99.90;;;;;;5061004;28;20598;-76
2021/10/30 08:46:53;;;;;;;4.97;3.33;;;15.00;99.90;;;;;;5056706;28;20624;-76
2021/10/30 08:49:19;;;;;;;3.93;2.80;;;15.00;99.90;;;;;;5057286;28;20400;-76
2021/10/30 08:51:46;;;;;;;4.10;3.27;;;15.10;99.90;;;;;;5070326;28;20918;-76
2021/10/30 08:54:12;;;;;;;4.07;3.00;;;15.10;99.90;;;;;;5074231;28;20610;-76
2021/10/30 08:56:39;;;;;;;4.00;3.50;;;15.20;99.90;;;;;;5074558;28;20613;-77
2021/10/30 08:59:09;;;;;;;3.50;3.20;;;15.20;99.90;;;;;;5040198;28;21141;-76
2021/10/30 09:01:47;;;;;;;3.60;2.93;;;15.20;99.90;;;;;;5074544;28;20569;-76
2021/10/30 09:04:17;;;;;;;3.63;2.93;;;15.30;99.90;;;;;;5056461;28;20643;-76
2021/10/30 09:06:59;;;;;;;3.63;3.00;;;15.40;99.90;;;;;;5074520;28;20955;-76
2021/10/30 09:09:26;;;;;;;4.13;3.00;;;15.40;99.90;;;;;;5056522;28;20989;-76
2021/10/30 09:11:54;;;;;;;3.30;2.90;;;15.50;99.90;;;;;;5074730;28;21102;-76
2021/10/30 09:14:25;;;;;;;5.27;3.20;;;15.40;99.90;;;;;;5074115;28;20667;-76
2021/10/30 09:17:12;;;;;;;5.37;3.70;;;15.50;99.90;;;;;;5060568;28;20713;-76
2021/10/30 09:19:43;;;;;;;5.60;4.00;;;15.50;99.90;;;;;;5075521;28;20613;-76
2021/10/30 09:22:08;;;;;;;6.93;4.60;;;15.40;99.90;;;;;;5053630;28;20914;-76
2021/10/30 09:24:56;;;;;;;4.23;3.53;;;15.40;99.90;;;;;;5057233;28;20688;-76
2021/10/30 09:27:59;;;;;;;5.63;4.90;;;15.40;99.90;;;;;;5077968;28;20229;-76
2021/10/30 09:30:34;;;;;;;4.90;4.37;;;15.30;99.90;;;;;;5060637;28;20593;-76
2021/10/30 09:33:03;;;;;;;7.40;5.10;;;15.30;99.90;;;;;;5067356;28;20671;-76
2021/10/30 09:35:41;;;;;;;4.13;3.73;;;15.30;99.90;;;;;;5093700;28;20565;-76
2021/10/30 09:38:24;;;;;;;4.90;4.30;;;15.30;99.90;;;;;;5094142;28;20588;-76
2021/10/30 09:40:50;;;;;;;6.60;3.73;;;15.30;99.90;;;;;;5094020;28;20888;-76
2021/10/30 09:43:18;;;;;;;5.37;4.30;;;15.30;99.90;;;;;;5076040;28;20707;-76
2021/10/30 09:45:50;;;;;;;4.43;3.73;;;15.30;99.90;;;;;;5093258;28;20175;-76
2021/10/30 09:48:23;;;;;;;4.70;4.30;;;15.30;99.90;;;;;;5075891;28;20573;-76
2021/10/30 09:50:52;;;;;;;5.43;4.70;;;15.40;99.90;;;;;;5075808;28;20707;-76
2021/10/30 09:53:25;;;;;;;5.00;3.97;;;15.40;99.90;;;;;;5098969;28;20565;-76
2021/10/30 09:56:01;;;;;;;5.30;4.50;;;15.40;99.90;;;;;;5093286;28;20605;-76
2021/10/30 09:58:32;;;;;;;5.87;4.43;;;15.40;99.90;;;;;;5093858;28;20566;-75
2021/10/30 10:01:19;;;;;;;4.23;3.83;;;15.40;99.90;;;;;;5093875;28;20572;-76
2021/10/30 10:03:47;;;;;;;6.50;4.67;;;15.40;99.90;;;;;;5093847;28;20642;-76
2021/10/30 10:06:17;;;;;;;6.80;4.10;;;15.40;99.90;;;;;;5075417;28;20574;-76
2021/10/30 10:08:48;;;;;;;5.57;5.07;;;15.40;99.90;;;;;;5093911;28;20562;-76
2021/10/30 10:11:16;;;;;;;5.30;3.80;;;15.50;99.90;;;;;;5093717;28;20623;-75
2021/10/30 10:13:46;;;;;;;5.43;4.07;;;15.50;99.90;;;;;;5093200;28;20605;-75
2021/10/30 10:16:20;;;;;;;4.90;3.67;;;15.50;99.90;;;;;;5074582;28;20633;-75
2021/10/30 10:18:47;;;;;;;7.37;5.30;;;15.50;99.90;;;;;;5075321;28;20570;-75
2021/10/30 10:21:26;;;;;;;4.53;3.90;;;15.50;99.90;;;;;;5093308;28;20581;-76
2021/10/30 10:23:53;;;;;;;6.00;4.77;;;15.50;99.90;;;;;;5093342;28;20952;-76
2021/10/30 10:26:33;;;;;;;3.50;3.20;;;15.50;99.90;;;;;;5074735;28;20576;-76
2021/10/30 10:29:04;;;;;;;5.97;3.83;;;15.50;99.90;;;;;;5093521;28;20577;-76
2021/10/30 10:31:30;;;;;;;4.33;3.70;;;15.50;99.90;;;;;;5097595;28;21135;-76
2021/10/30 10:34:11;;;;;;;4.63;4.00;;;15.60;99.90;;;;;;5093049;28;21145;-76
2021/10/30 10:36:38;;;;;;;5.67;4.00;;;15.60;99.90;;;;;;5074522;28;21025;-76
2021/10/30 10:39:03;;;;;;;4.50;4.00;;;15.60;99.90;;;;;;5093120;28;20558;-76
2021/10/30 10:41:44;;;;;;;4.87;4.37;;;15.60;99.90;;;;;;5074659;28;20676;-77
2021/10/30 10:44:22;;;;;;;6.13;5.00;;;15.60;99.90;;;;;;5058114;28;20777;-76
2021/10/30 10:46:51;;;;;;;4.60;3.97;;;15.50;99.90;;;;;;5074173;28;20589;-77
2021/10/30 10:52:15;;;;;;;5.10;4.60;;;15.50;99.90;;;;;;5092619;28;21210;-77
2021/10/30 10:54:56;;;;;;;5.33;4.83;;;15.50;99.90;;;;;;5067549;28;21379;-76
2021/10/30 10:57:27;;;;;;;8.27;4.87;;;15.50;99.90;;;;;;5070403;28;20675;-76
2021/10/30 11:00:05;;;;;;;5.63;4.70;;;15.50;99.90;;;;;;5076731;28;20979;-76
2021/10/30 11:02:51;;;;;;;5.43;4.43;;;15.60;99.90;;;;;;5085924;28;20581;-76
2021/10/30 11:05:22;;;;;;;5.50;3.67;;;15.50;99.90;;;;;;5091795;28;21148;-76
2021/10/30 11:07:51;;;;;;;5.10;4.27;;;15.60;99.90;;;;;;5097497;28;20558;-76
2021/10/30 11:10:32;;;;;;;4.20;3.47;;;15.60;99.90;;;;;;5092588;28;20732;-76
2021/10/30 11:13:01;;;;;;;4.27;3.43;;;15.60;99.90;;;;;;5074225;28;20645;-77
2021/10/30 11:15:44;;;;;;;8.87;3.60;;;15.60;99.90;;;;;;5073814;28;20704;-76
2021/10/30 11:18:22;;;;;;;3.93;3.53;;;15.60;99.90;;;;;;5092299;28;20558;-76
2021/10/30 11:21:11;;;;;;;6.47;4.37;;;15.60;99.90;;;;;;5057776;28;20790;-75
2021/10/30 11:23:47;;;;;;;4.20;3.80;;;15.60;99.90;;;;;;5091904;28;20589;-76
2021/10/30 11:26:24;;;;;;;4.97;4.30;;;15.60;99.90;;;;;;5091936;28;20569;-76
2021/10/30 11:28:50;;;;;;;5.20;3.60;;;15.60;99.90;;;;;;5092068;28;20566;-76
2021/10/30 11:31:24;;;;;;;5.07;3.80;;;15.70;99.90;;;;;;5092189;28;20573;-76
2021/10/30 11:34:18;;;;;;;3.67;3.10;;;15.60;99.90;;;;;;5092159;28;20589;-76
2021/10/30 11:36:45;;;;;;;4.77;4.03;;;15.60;99.90;;;;;;5088777;28;20989;-76
2021/10/30 11:39:14;;;;;;;6.97;3.13;;;15.70;99.90;;;;;;5073781;28;20881;-76
2021/10/30 11:41:42;;;;;;;4.63;4.17;;;15.80;99.90;;;;;;5092267;28;20573;-76
2021/10/30 11:44:16;;;;;;;4.70;4.20;;;15.80;99.90;;;;;;5094960;28;20618;-76
2021/10/30 11:46:48;;;;;;;4.47;4.03;;;15.80;99.90;;;;;;5093182;28;20604;-76
2021/10/30 11:49:34;;;;;;;5.40;4.40;;;15.90;99.90;;;;;;5073670;28;20573;-76
2021/10/30 11:52:05;;;;;;;4.20;3.80;;;15.90;99.90;;;;;;5074318;28;20584;-76
2021/10/30 11:54:31;;;;;;;4.63;3.60;;;15.90;99.90;;;;;;5073609;28;20612;-76
2021/10/30 11:57:02;;;;;;;6.00;3.50;;;16.00;99.90;;;;;;5091663;28;20629;-76
2021/10/30 11:59:27;;;;;;;6.53;3.23;;;16.00;99.90;;;;;;5056977;28;20557;-76
2021/10/30 12:01:53;;;;;;;6.57;4.40;;;16.10;99.90;;;;;;5074461;28;20589;-76
2021/10/30 12:04:38;;;;;;;5.57;3.37;;;16.10;99.90;;;;;;5092616;28;20187;-76
2021/10/30 12:07:05;;;;;;;6.17;3.90;;;16.10;99.90;;;;;;5091972;28;20180;-76
2021/10/30 12:09:41;;;;;;;6.07;3.87;;;16.10;99.90;;;;;;5094708;28;20673;-76
2021/10/30 12:12:19;;;;;;;6.63;4.40;;;16.10;99.90;;;;;;5077832;28;20585;-77
2021/10/30 12:14:55;;;;;;;9.10;7.97;;;16.10;99.90;;;;;;5095539;28;20648;-77
2021/10/30 12:17:34;;;;;;;7.03;5.60;;;16.10;99.90;;;;;;5096027;28;20617;-76
2021/10/30 12:20:09;;;;;;;7.23;4.50;;;16.20;99.90;;;;;;5095885;28;20912;-76
2021/10/30 12:22:43;;;;;;;4.30;3.33;;;16.20;99.90;;;;;;5100502;28;20561;-75
2021/10/30 12:25:14;;;;;;;7.73;3.50;;;16.20;99.90;;;;;;5095199;28;20623;-75
2021/10/30 12:27:49;;;;;;;5.40;3.50;;;16.30;99.90;;;;;;5077630;28;20574;-75
2021/10/30 12:30:18;;;;;;;4.13;3.40;;;16.30;99.90;;;;;;5077371;28;20569;-75
2021/10/30 12:32:46;;;;;;;4.33;3.80;;;16.30;99.90;;;;;;5095405;28;20581;-75
2021/10/30 12:35:27;;;;;;;5.83;3.80;;;16.40;99.90;;;;;;5095034;28;20597;-76
2021/10/30 12:37:53;;;;;;;4.20;3.77;;;16.30;99.90;;;;;;5096337;28;20573;-76
2021/10/30 12:40:27;;;;;;;5.10;4.13;;;16.30;99.90;;;;;;5095158;28;20615;-76
2021/10/30 12:43:11;;;;;;;4.33;3.77;;;16.30;99.90;;;;;;5095181;28;20557;-77
2021/10/30 12:45:48;;;;;;;5.67;4.27;;;16.30;99.90;;;;;;5094901;28;20589;-77
2021/10/30 12:48:18;;;;;;;3.87;3.37;;;16.30;99.90;;;;;;5095207;28;20660;-76
2021/10/30 12:50:59;;;;;;;4.70;3.13;;;16.30;99.90;;;;;;5094901;28;20633;-75
2021/10/30 12:53:37;;;;;;;4.30;3.77;;;16.30;99.90;;;;;;5076595;28;20608;-75
2021/10/30 12:56:18;;;;;;;5.73;4.90;;;16.30;99.90;;;;;;5060236;28;20641;-78
2021/10/30 12:58:45;;;;;;;5.57;4.00;;;16.30;99.90;;;;;;5100388;28;20558;-78
2021/10/30 13:01:17;;;;;;;4.70;3.77;;;16.30;99.90;;;;;;5095103;28;20584;-77